Main page
METAR-TAF:

METAR-TAF

Airports :

Colmenar Viejo, Spain

latitude: 40-39N, longitude: 003-44W, elevation: -999 m

Current weather observation

The report was made 7 hours and 48 minutes ago, at 18:00 UTC
Calm wind
Temperature 31°C
Humidity 21%
Pressure 1020 hPa
Visibility 10 km or more
Few clouds at a height of 5500 ft

METAR: LECV 211800Z 00000KT 9999 FEW055 31/06 Q1020

Time: 03:48 (01:48 UTC)

Forecast

The report was made 8 hours and 48 minutes ago, at 17:00 UTC
Forecast valid from 21 at 18 UTC to 22 at 03 UTC
Wind 5 kt from variable directions
Visibility 10 km or more
Few clouds at a height of 4500 ft

TAF: LECV 211700Z 2118/2203 VRB05KT 9999 FEW045

Weather observations and forecasts of more than 4000 airports (METAR and TAF reports).

The available stations are represented by yellow and red dots on the map.

Hover mouse over dot to see the name of the station.

Then click to see weather observations and forecasts.

To change the map : click on the green buttons with a black cross to zoom in, on the green button with a dash to zoom out, or on the green arrows for adjacent maps.


METAR-TAF: